Cotia, Brazil
Current Conditions -  °F | °C
As of 10:00 PM on Monday 22 Dec 2014 (Local Time) from SBMT Reporting Station
Thunderstorm Thunderstorm  
Wind Chill: 70°   Ceiling: 1000
Heat Index: 70°   Visibility: 1.2mi
Dew Point: 68°   Wind: 5mph
Humidity: 94%   Direction: 30°NNE
Pressure: 30.03"   Gusts: NA
Location:  23.6°S, 46.92°W
Report Text: SBMT 230000Z 03004KT 2000 TSRA BR BKN010 SCT035CB 21/20 Q1017 RERA
Loading
Personal Weather Stations






























Interactive Weather Map New forecast layout! Learn more

10-Day Weather Forecast

Advertisements
Track Severe Weather on mobile